This is the latest recevied weather packets stored in our database for station/object EB2BAG-11. If no packets are shown the sender has not sent any weather packets the latest 10 day(s).
| Time | Temp. | Humidity | Pressure | Rain* | Wind** | Luminosity | Snow |
|---|---|---|---|---|---|---|---|
| 1777658141 | 25.56° C | 61% | 1017.8 hPa | - | - | - | - |
| 1777656941 | 25.56° C | 58% | 1017.7 hPa | - | - | - | - |
| 1777655741 | 25° C | 58% | 1017.8 hPa | - | - | - | - |
| 1777654541 | 25.56° C | 52% | 1017.7 hPa | - | - | - | - |
| 1777653340 | 26.11° C | 52% | 1017.6 hPa | - | - | - | - |
| 1777652140 | 26.11° C | 51% | 1017.8 hPa | - | - | - | - |
| 1777650940 | 26.67° C | 51% | 1017.7 hPa | - | - | - | - |
| 1777649740 | 26.67° C | 50% | 1017.9 hPa | - | - | - | - |
| 1777648540 | 26.11° C | 52% | 1018.1 hPa | - | - | - | - |
| 1777647340 | 27.22° C | 50% | 1018.4 hPa | - | - | - | - |
| 1777646140 | 27.22° C | 49% | 1018.4 hPa | - | - | - | - |
| 1777644940 | 28.89° C | 36% | 1018.4 hPa | - | - | - | - |
| 1777643740 | 27.22° C | 37% | 1018.8 hPa | - | - | - | - |
| 1777642540 | 27.22° C | 38% | 1018.9 hPa | - | - | - | - |
| 1777641340 | 27.22° C | 39% | 1019 hPa | - | - | - | - |
| 1777640139 | 27.22° C | 38% | 1019.1 hPa | - | - | - | - |
| 1777638939 | 26.67° C | 40% | 1019.2 hPa | - | - | - | - |
| 1777637739 | 27.22° C | 41% | 1019.3 hPa | - | - | - | - |
| 1777636539 | 26.67° C | 40% | 1019.4 hPa | - | - | - | - |
| 1777635339 | 26.67° C | 41% | 1019.5 hPa | - | - | - | - |
| 1777634139 | 26.11° C | 40% | 1019.4 hPa | - | - | - | - |
| 1777632939 | 26.11° C | 42% | 1019.7 hPa | - | - | - | - |
| 1777631739 | 25° C | 49% | 1019.8 hPa | - | - | - | - |
| 1777630539 | 24.44° C | 56% | 1020.2 hPa | - | - | - | - |
| 1777629339 | 23.33° C | 62% | 1020.5 hPa | - | - | - | - |
* Rain since midnight (hover to see other rain measurements)
** Current wind speed in m/s (hover to see current wind gust speed)